Terminal Aerodrome Forecast
Issued by NWS

Home | Current Version | Previous Version | Text Only | Print | Product List | Glossary Off
Versions: 1 2 3 4 5 6 7 8 9 10 11 12 13 14 15 16 17 18 19 20 21 22 23 24 25 26

000
FTUS43 KLOT 201120
TAFDPA
TAF
KDPA 201120Z 2012/2112 14007KT 6SM BR FEW020 OVC050
     FM201400 15006KT P6SM BKN025 OVC050
     FM201600 VRB04KT 5SM BR VCSH SCT010 OVC020
      TEMPO 2016/2018 -SHRA OVC012
     FM201800 02011KT P6SM OVC025
     FM202200 02009KT P6SM SCT035 BKN060
     FM210400 02006KT P6SM BKN150=

USA.gov is the U.S. government's official web portal to all federal, state and local government web resources and services.